Terminal Aerodrome Forecast
Issued by NWS Blacksburg, VA

Home | Current Version | Previous Version | Text Only | Print | Product List | Glossary On
Versions: 1 2 3 4 5 6 7 8 9 10 11 12 13 14 15 16 17 18 19 20 21 22 23 24 25 26 27 28 29 30 31 32 33
000
FTUS41 KRNK 290520
TAFLYH
TAF
KLYH 290520Z 2906/3006 00000KT P6SM SCT250
     FM291000 VRB04KT P6SM SCT150 BKN250
     FM291900 17006KT P6SM -SHRA BKN060 OVC110
     FM292300 19006KT P6SM OVC060=

USA.gov is the U.S. government's official web portal to all federal, state and local government web resources and services.